Time;durP1;ratioP1;P1;durP2;ratioP2;P2;SDS_P1;SDS_P2;PMS_P1;PMS_P2;Temp;Humidity;BMP_temperature;BMP_pressure;BME280_temperature;BME280_humidity;BME280_pressure;Samples;Min_cycle;Max_cycle;Signal;HPM_P1;HPM_P2
2021/12/07 00:01:29;;;;;;;47.30;7.28;;;9.40;99.90;;;;;;4894616;29;20494;-83
2021/12/07 00:03:56;;;;;;;57.33;10.75;;;9.40;99.90;;;;;;4896122;29;20039;-83
2021/12/07 00:06:22;;;;;;;42.42;7.68;;;9.50;99.90;;;;;;4895680;29;20367;-83
2021/12/07 00:08:53;;;;;;;42.70;8.75;;;9.50;99.90;;;;;;4895333;29;20033;-83
2021/12/07 00:11:19;;;;;;;42.78;7.63;;;9.50;99.90;;;;;;4894505;29;20401;-83
2021/12/07 00:13:45;;;;;;;47.40;7.03;;;9.50;99.90;;;;;;4895448;29;20573;-83
2021/12/07 00:16:11;;;;;;;54.05;7.78;;;9.50;99.90;;;;;;4895873;29;20103;-83
2021/12/07 00:18:38;;;;;;;51.25;7.72;;;9.60;99.90;;;;;;4895803;29;20025;-83
2021/12/07 00:21:06;;;;;;;48.20;7.90;;;9.60;99.90;;;;;;4895613;29;20501;-83
2021/12/07 00:23:33;;;;;;;47.38;7.40;;;9.60;99.90;;;;;;4894214;29;20250;-83
2021/12/07 00:25:58;;;;;;;42.22;6.50;;;9.70;99.90;;;;;;4893888;29;20032;-83
2021/12/07 00:28:24;;;;;;;45.58;7.72;;;9.60;99.90;;;;;;4895558;29;20025;-83
2021/12/07 00:30:52;;;;;;;52.38;7.53;;;9.60;99.90;;;;;;4895489;29;20037;-83
2021/12/07 00:35:52;;;;;;;;;;;9.60;99.90;;;;;;4895985;29;20032;-83
2021/12/07 00:38:21;;;;;;;48.42;7.18;;;9.60;99.90;;;;;;4894834;29;19907;-83
2021/12/07 00:40:48;;;;;;;46.83;7.90;;;9.70;99.90;;;;;;4895229;29;20535;-83
2021/12/07 00:43:15;;;;;;;39.58;6.97;;;9.60;99.90;;;;;;4894960;29;20037;-83
2021/12/07 00:45:45;;;;;;;55.83;7.07;;;9.70;99.90;;;;;;4895277;29;20178;-83
2021/12/07 00:48:15;;;;;;;54.60;7.45;;;9.70;99.90;;;;;;4893979;29;20185;-83
2021/12/07 00:50:48;;;;;;;55.20;8.38;;;9.70;99.90;;;;;;4895238;29;20029;-83
2021/12/07 00:53:15;;;;;;;48.67;8.15;;;9.80;99.90;;;;;;4893859;29;20506;-84
2021/12/07 00:55:47;;;;;;;54.63;7.40;;;9.80;99.90;;;;;;4894579;29;20017;-83
2021/12/07 00:58:21;;;;;;;48.47;6.18;;;9.90;99.90;;;;;;4893777;29;20036;-83
2021/12/07 01:00:52;;;;;;;45.40;7.25;;;9.90;99.90;;;;;;4895229;29;20032;-83
2021/12/07 01:03:18;;;;;;;65.00;8.02;;;9.90;99.90;;;;;;4895093;29;20438;-83
2021/12/07 01:05:50;;;;;;;46.67;6.90;;;10.00;99.90;;;;;;4893566;29;20075;-83
2021/12/07 01:08:54;;;;;;;46.50;6.80;;;10.00;99.90;;;;;;4894738;29;20068;-83
2021/12/07 01:24:43;;;;;;;45.63;6.38;;;9.90;99.90;;;;;;4894973;29;20091;-83
2021/12/07 01:27:18;;;;;;;49.30;6.40;;;10.00;99.90;;;;;;4893575;29;20369;-83
2021/12/07 01:30:17;;;;;;;53.92;6.55;;;10.10;99.90;;;;;;4895097;29;20021;-83
2021/12/07 02:00:50;;;;;;;61.17;13.68;;;9.90;99.90;;;;;;4892809;29;20517;-83
2021/12/07 02:03:16;;;;;;;52.28;13.75;;;9.90;99.90;;;;;;4894263;29;20029;-83
2021/12/07 02:05:42;;;;;;;54.78;9.98;;;9.90;99.90;;;;;;4894551;29;20024;-83
2021/12/07 02:08:08;;;;;;;64.05;8.52;;;9.80;99.90;;;;;;4897516;29;20032;-83
2021/12/07 02:10:35;;;;;;;52.17;7.75;;;9.90;99.90;;;;;;4897591;29;20050;-84
2021/12/07 02:13:17;;;;;;;67.72;7.40;;;9.90;99.90;;;;;;4897528;29;20035;-83
2021/12/07 02:15:42;;;;;;;48.15;6.68;;;9.90;99.90;;;;;;4897614;29;20504;-83
2021/12/07 02:18:08;;;;;;;56.85;7.47;;;9.80;99.90;;;;;;4896189;29;20024;-83
2021/12/07 02:20:34;;;;;;;39.90;6.07;;;9.80;99.90;;;;;;4897478;29;20092;-83
2021/12/07 02:22:59;;;;;;;47.95;5.93;;;9.70;99.90;;;;;;4897225;29;20128;-83
2021/12/07 02:25:25;;;;;;;52.72;6.63;;;9.60;99.90;;;;;;4897364;29;20115;-83
2021/12/07 02:27:53;;;;;;;38.85;5.60;;;9.60;99.90;;;;;;4897380;29;20119;-83
2021/12/07 02:30:21;;;;;;;27.20;4.30;;;9.50;99.90;;;;;;4897234;29;20056;-84
2021/12/07 02:32:50;;;;;;;36.80;5.05;;;9.40;99.90;;;;;;4897295;29;20031;-83
2021/12/07 02:35:22;;;;;;;30.00;4.85;;;9.40;99.90;;;;;;4897299;29;20108;-83
2021/12/07 02:37:48;;;;;;;34.88;4.78;;;9.30;99.90;;;;;;4897273;29;20024;-83
2021/12/07 02:40:14;;;;;;;25.67;4.18;;;9.20;99.90;;;;;;4895771;29;20032;-83
2021/12/07 02:42:40;;;;;;;40.80;5.45;;;9.20;99.90;;;;;;4897047;29;20033;-83
2021/12/07 02:45:06;;;;;;;29.50;4.60;;;9.10;99.90;;;;;;4897694;29;20363;-83
2021/12/07 02:47:36;;;;;;;25.60;4.47;;;9.00;99.90;;;;;;4897223;29;20044;-83
2021/12/07 02:50:05;;;;;;;33.67;5.63;;;9.00;99.90;;;;;;4895723;29;20035;-83
2021/12/07 02:52:31;;;;;;;37.08;5.75;;;8.90;99.90;;;;;;4897335;29;20028;-83
2021/12/07 02:54:57;;;;;;;39.13;6.10;;;8.90;99.90;;;;;;4896752;29;20085;-83
2021/12/07 02:57:23;;;;;;;29.00;6.15;;;8.80;99.90;;;;;;4896848;29;20112;-83
2021/12/07 03:00:13;;;;;;;28.98;5.60;;;8.80;99.90;;;;;;4896742;29;20063;-83
2021/12/07 03:02:47;;;;;;;38.63;7.82;;;8.80;99.90;;;;;;4896858;29;20033;-84
2021/12/07 03:05:43;;;;;;;42.13;6.75;;;8.70;99.90;;;;;;4896980;29;20040;-83
2021/12/07 03:27:22;;;;;;;31.90;4.25;;;8.90;99.90;;;;;;4896338;29;19922;-83
2021/12/07 03:29:48;;;;;;;34.85;6.18;;;8.90;99.90;;;;;;4894890;29;20024;-83
2021/12/07 03:32:14;;;;;;;34.97;5.93;;;8.90;99.90;;;;;;4896271;29;20041;-83
2021/12/07 03:34:39;;;;;;;31.80;4.95;;;8.80;99.90;;;;;;4894896;29;20128;-83
2021/12/07 03:37:06;;;;;;;24.42;4.35;;;8.80;99.90;;;;;;4896191;29;20036;-83
2021/12/07 03:39:31;;;;;;;30.75;5.28;;;8.80;99.90;;;;;;4895844;29;20085;-83
2021/12/07 03:41:57;;;;;;;36.15;5.80;;;8.80;99.90;;;;;;4896115;29;20036;-83
2021/12/07 03:44:23;;;;;;;31.15;4.80;;;8.70;99.90;;;;;;4896128;29;20032;-83
2021/12/07 03:46:49;;;;;;;29.45;5.85;;;8.70;99.90;;;;;;4895838;29;20025;-83
2021/12/07 03:49:14;;;;;;;28.30;5.60;;;8.60;99.90;;;;;;4894613;29;20032;-84
2021/12/07 03:51:41;;;;;;;35.58;5.53;;;8.60;99.90;;;;;;4895966;29;20403;-83
2021/12/07 03:54:07;;;;;;;30.90;5.25;;;8.60;99.90;;;;;;4895677;29;20037;-83
2021/12/07 03:56:34;;;;;;;29.77;4.78;;;8.60;99.90;;;;;;4894201;29;20035;-83
2021/12/07 03:59:00;;;;;;;32.47;4.82;;;8.60;99.90;;;;;;4895806;29;20033;-83
2021/12/07 04:01:26;;;;;;;21.92;4.30;;;8.60;99.90;;;;;;4895859;29;20032;-83
2021/12/07 04:03:53;;;;;;;32.95;4.95;;;8.60;99.90;;;;;;4895714;29;20509;-83
2021/12/07 04:06:20;;;;;;;29.58;3.78;;;8.60;99.90;;;;;;4895669;29;20029;-83
2021/12/07 04:08:46;;;;;;;35.72;4.85;;;8.60;99.90;;;;;;4895352;29;20055;-83
2021/12/07 04:11:13;;;;;;;33.05;5.95;;;8.70;99.90;;;;;;4893888;29;20466;-84
2021/12/07 04:13:40;;;;;;;46.03;5.35;;;8.70;99.90;;;;;;4895449;29;20402;-83
2021/12/07 04:16:08;;;;;;;36.40;4.75;;;8.70;99.90;;;;;;4894344;29;20025;-83
2021/12/07 04:18:34;;;;;;;42.80;5.57;;;8.80;99.90;;;;;;4894080;29;20032;-83
2021/12/07 04:21:02;;;;;;;44.05;5.60;;;8.80;99.90;;;;;;4895438;29;20054;-83
2021/12/07 04:23:28;;;;;;;35.95;5.15;;;8.90;99.90;;;;;;4895146;29;20060;-83
2021/12/07 04:25:54;;;;;;;38.58;5.65;;;8.90;99.90;;;;;;4895010;29;20059;-84
2021/12/07 04:28:20;;;;;;;39.28;5.22;;;8.90;99.90;;;;;;4895137;29;20662;-83
2021/12/07 04:30:46;;;;;;;49.90;6.88;;;8.90;99.90;;;;;;4894113;29;20032;-84
2021/12/07 04:33:13;;;;;;;55.45;8.20;;;8.90;99.90;;;;;;4895416;29;20029;-83
2021/12/07 04:35:41;;;;;;;74.57;8.55;;;8.90;99.90;;;;;;4895003;29;20033;-83
2021/12/07 04:38:07;;;;;;;67.13;9.23;;;8.90;99.90;;;;;;4889204;29;20127;-83
2021/12/07 04:40:34;;;;;;;53.15;7.72;;;9.00;99.90;;;;;;4894892;29;20557;-83
2021/12/07 04:43:01;;;;;;;63.03;7.82;;;9.00;99.90;;;;;;4894847;29;20032;-83
2021/12/07 04:48:52;;;;;;;70.90;7.10;;;8.90;99.90;;;;;;4894610;29;20108;-83
2021/12/07 04:59:15;;;;;;;50.22;6.40;;;9.00;99.90;;;;;;4894918;29;20121;-84
2021/12/07 05:01:41;;;;;;;55.53;6.78;;;9.10;99.90;;;;;;4894769;29;20486;-83
2021/12/07 05:04:13;;;;;;;48.75;6.95;;;9.20;99.90;;;;;;4894534;29;20032;-84
2021/12/07 05:06:48;;;;;;;64.40;8.32;;;9.20;99.90;;;;;;4894492;29;20417;-83
2021/12/07 05:14:30;;;;;;;50.40;7.07;;;9.50;99.90;;;;;;4894895;29;20100;-84
2021/12/07 05:38:22;;;;;;;58.33;8.70;;;9.50;99.90;;;;;;4894681;29;20036;-83
2021/12/07 05:40:48;;;;;;;59.45;7.97;;;9.50;99.90;;;;;;4894321;29;20033;-83
2021/12/07 05:43:14;;;;;;;50.85;6.22;;;9.50;99.90;;;;;;4898089;29;20076;-83
2021/12/07 05:45:40;;;;;;;35.88;5.85;;;9.50;99.90;;;;;;4898525;29;20545;-83
2021/12/07 05:48:06;;;;;;;55.88;7.15;;;9.40;99.90;;;;;;4897977;29;20075;-84
2021/12/07 05:50:35;;;;;;;51.72;6.80;;;9.40;99.90;;;;;;4898098;29;20542;-84
2021/12/07 05:53:03;;;;;;;55.33;6.78;;;9.30;99.90;;;;;;4898047;29;20037;-83
2021/12/07 05:55:29;;;;;;;59.60;6.95;;;9.30;99.90;;;;;;4897905;29;20438;-84
2021/12/07 05:57:56;;;;;;;44.28;6.05;;;9.30;99.90;;;;;;4897784;29;20032;-83
2021/12/07 06:00:27;;;;;;;45.85;6.45;;;9.30;99.90;;;;;;4897828;29;20088;-83
2021/12/07 06:02:55;;;;;;;45.97;7.28;;;9.30;99.90;;;;;;4896622;29;20025;-84
2021/12/07 06:05:22;;;;;;;48.72;7.40;;;9.30;99.90;;;;;;4896687;29;20068;-84
2021/12/07 06:07:49;;;;;;;49.80;8.02;;;9.30;99.90;;;;;;4897856;29;20044;-83
2021/12/07 06:10:14;;;;;;;55.75;6.80;;;9.30;99.90;;;;;;4896290;29;20071;-83
2021/12/07 06:12:40;;;;;;;45.75;6.78;;;9.40;99.90;;;;;;4897761;29;20055;-83
2021/12/07 06:15:07;;;;;;;54.00;6.30;;;9.40;99.90;;;;;;4897595;29;20442;-83
2021/12/07 06:17:33;;;;;;;44.80;7.32;;;9.30;99.90;;;;;;4897460;29;20482;-84
2021/12/07 06:19:59;;;;;;;53.83;7.97;;;9.40;99.90;;;;;;4897430;29;20033;-83
2021/12/07 06:22:25;;;;;;;65.53;7.35;;;9.30;99.90;;;;;;4897157;29;20055;-84
2021/12/07 06:24:51;;;;;;;60.05;6.10;;;9.30;99.90;;;;;;4899525;29;20330;-84
2021/12/07 06:27:16;;;;;;;59.05;7.95;;;9.20;99.90;;;;;;4898557;29;20421;-84
2021/12/07 06:29:42;;;;;;;68.80;9.15;;;9.20;99.90;;;;;;4897611;29;20029;-83
2021/12/07 06:32:08;;;;;;;46.22;7.68;;;9.20;99.90;;;;;;4897573;29;20033;-84
2021/12/07 06:34:34;;;;;;;50.72;9.38;;;9.20;99.90;;;;;;4897488;29;20024;-83
2021/12/07 06:37:01;;;;;;;65.95;10.95;;;9.20;99.90;;;;;;4897339;29;20037;-84
2021/12/07 06:39:26;;;;;;;69.93;8.80;;;9.30;99.90;;;;;;4896571;29;20073;-84
2021/12/07 06:41:52;;;;;;;61.83;9.70;;;9.30;99.90;;;;;;4896494;29;20032;-83
2021/12/07 06:44:18;;;;;;;74.25;9.05;;;9.30;99.90;;;;;;4896510;29;20040;-84
2021/12/07 06:46:47;;;;;;;59.83;8.43;;;9.30;99.90;;;;;;4896394;29;20433;-84
2021/12/07 06:49:17;;;;;;;69.68;8.95;;;9.30;99.90;;;;;;4897918;29;20111;-84
2021/12/07 06:51:43;;;;;;;67.43;9.15;;;9.30;99.90;;;;;;4900567;29;20529;-83
2021/12/07 06:54:10;;;;;;;59.75;9.02;;;9.30;99.90;;;;;;4897709;29;20057;-83
2021/12/07 06:56:36;;;;;;;61.15;8.05;;;9.30;99.90;;;;;;4898190;29;20409;-83
2021/12/07 06:59:01;;;;;;;82.25;9.15;;;9.30;99.90;;;;;;4896776;29;20044;-83
2021/12/07 07:01:27;;;;;;;59.47;8.43;;;9.30;99.90;;;;;;4896713;29;20032;-83
2021/12/07 07:03:53;;;;;;;72.55;9.00;;;9.30;99.90;;;;;;4907487;29;20028;-83
2021/12/07 07:06:20;;;;;;;69.05;8.82;;;9.40;99.90;;;;;;4905313;29;20463;-83
2021/12/07 07:08:45;;;;;;;73.72;9.80;;;9.40;99.90;;;;;;4907494;29;20025;-83
2021/12/07 07:11:11;;;;;;;65.20;7.65;;;9.30;99.90;;;;;;4905608;29;20080;-83
2021/12/07 07:13:37;;;;;;;68.40;9.70;;;9.30;99.90;;;;;;4907374;29;20092;-83
2021/12/07 07:16:03;;;;;;;76.72;8.23;;;9.30;99.90;;;;;;4907334;29;20092;-83
2021/12/07 07:18:29;;;;;;;61.00;7.35;;;9.30;99.90;;;;;;4907395;29;20059;-83
2021/12/07 07:20:55;;;;;;;63.78;8.30;;;9.40;99.90;;;;;;4901262;29;20024;-85
2021/12/07 07:23:25;;;;;;;65.03;8.20;;;9.40;99.90;;;;;;4896424;29;20143;-83
2021/12/07 07:25:51;;;;;;;50.45;7.00;;;9.50;99.90;;;;;;4890814;29;20029;-83
2021/12/07 07:28:20;;;;;;;58.30;6.80;;;9.50;99.90;;;;;;4896542;29;20072;-90
2021/12/07 07:30:45;;;;;;;56.38;7.43;;;9.50;99.90;;;;;;4893217;29;20021;-92
2021/12/07 07:33:11;;;;;;;64.57;7.47;;;9.50;99.90;;;;;;4898184;29;20028;-91
2021/12/07 07:35:37;;;;;;;60.53;8.38;;;9.50;99.90;;;;;;4896933;29;20033;-92
2021/12/07 07:38:03;;;;;;;74.07;8.60;;;9.50;99.90;;;;;;4896502;29;20052;-90
2021/12/07 07:40:29;;;;;;;56.13;8.57;;;9.50;99.90;;;;;;4896643;29;20489;-92
2021/12/07 07:42:55;;;;;;;62.40;8.25;;;9.50;99.90;;;;;;4897165;29;20035;-91
2021/12/07 07:45:21;;;;;;;65.60;7.40;;;9.50;99.90;;;;;;4896628;29;20025;-91
2021/12/07 07:47:46;;;;;;;55.70;7.07;;;9.50;99.90;;;;;;4896374;29;20044;-89
2021/12/07 07:50:14;;;;;;;59.58;8.05;;;9.40;99.90;;;;;;4896384;29;20107;-91
2021/12/07 07:52:40;;;;;;;58.92;7.47;;;9.40;99.90;;;;;;4896460;29;20033;-91
2021/12/07 07:55:07;;;;;;;52.47;6.50;;;9.30;99.90;;;;;;4897520;29;20035;-89
2021/12/07 07:57:32;;;;;;;54.17;7.88;;;9.40;99.90;;;;;;4896946;29;20520;-90
2021/12/07 07:59:58;;;;;;;45.97;5.88;;;9.40;99.90;;;;;;4897743;29;20021;-92
2021/12/07 08:02:24;;;;;;;57.85;7.15;;;9.30;99.90;;;;;;4898318;29;20052;-93
2021/12/07 08:04:50;;;;;;;58.55;7.15;;;9.40;99.90;;;;;;4897786;29;20024;-91
2021/12/07 08:07:16;;;;;;;51.67;6.13;;;9.40;99.90;;;;;;4901226;29;20045;-91
2021/12/07 08:09:44;;;;;;;56.42;6.25;;;9.40;99.90;;;;;;4898113;29;20657;-91
2021/12/07 08:12:13;;;;;;;57.10;6.15;;;9.40;99.90;;;;;;4906417;29;20535;-89
2021/12/07 08:14:39;;;;;;;54.60;7.93;;;9.40;99.90;;;;;;4907853;29;20086;-93
2021/12/07 08:17:07;;;;;;;46.72;6.45;;;9.40;99.90;;;;;;4909443;29;20379;-92
2021/12/07 08:19:33;;;;;;;43.40;6.95;;;9.40;99.90;;;;;;4905441;29;20029;-95
2021/12/07 08:21:59;;;;;;;56.83;7.68;;;9.50;99.90;;;;;;4890072;29;20037;-93
2021/12/07 08:24:28;;;;;;;48.65;6.43;;;9.50;99.90;;;;;;4905759;29;20036;-91
2021/12/07 08:26:54;;;;;;;40.88;6.57;;;9.50;99.90;;;;;;4909427;29;20048;-91
2021/12/07 08:29:21;;;;;;;46.47;6.07;;;9.60;99.90;;;;;;4903057;29;20036;-96
2021/12/07 08:31:48;;;;;;;40.35;6.18;;;9.60;99.90;;;;;;4906665;29;20093;-93
2021/12/07 08:34:14;;;;;;;39.60;6.97;;;9.60;99.90;;;;;;4904007;29;20052;-92
2021/12/07 08:36:39;;;;;;;45.25;6.50;;;9.60;99.90;;;;;;4904903;29;20029;-91
2021/12/07 08:39:09;;;;;;;55.53;6.13;;;9.60;99.90;;;;;;4900321;29;20025;-90
2021/12/07 08:41:36;;;;;;;40.00;5.97;;;9.60;99.90;;;;;;4905594;29;20115;-90
2021/12/07 08:44:08;;;;;;;44.13;5.97;;;9.70;99.90;;;;;;4902219;29;20284;-91
2021/12/07 08:46:34;;;;;;;41.67;6.45;;;9.70;99.90;;;;;;4900928;29;20200;-92
2021/12/07 08:49:00;;;;;;;50.40;7.30;;;9.70;99.90;;;;;;4895077;29;20036;-79
2021/12/07 08:51:26;;;;;;;39.50;5.90;;;9.70;99.90;;;;;;4896259;29;20031;-90
2021/12/07 08:54:16;;;;;;;36.90;5.28;;;9.70;99.90;;;;;;4895568;29;20524;-91
2021/12/07 09:02:07;;;;;;;50.85;6.18;;;9.70;99.90;;;;;;4893980;29;20489;-85
2021/12/07 09:04:33;;;;;;;33.60;5.57;;;9.70;99.90;;;;;;4893224;29;20107;-85
2021/12/07 09:07:00;;;;;;;43.90;6.55;;;9.70;99.90;;;;;;4889330;29;20450;-86
2021/12/07 09:09:27;;;;;;;46.50;6.07;;;9.70;99.90;;;;;;4891907;29;20033;-86
2021/12/07 09:11:55;;;;;;;40.45;6.07;;;9.80;99.90;;;;;;4892296;29;20513;-86
2021/12/07 09:14:22;;;;;;;48.58;7.20;;;9.70;99.90;;;;;;4889271;29;20025;-85
2021/12/07 09:16:48;;;;;;;44.67;6.15;;;9.80;99.90;;;;;;4897142;29;20032;-86
2021/12/07 09:19:14;;;;;;;49.20;6.57;;;9.80;99.90;;;;;;4894266;29;20482;-85
2021/12/07 09:21:40;;;;;;;35.85;5.47;;;9.80;99.90;;;;;;4899736;29;20188;-86
2021/12/07 09:24:08;;;;;;;36.28;6.10;;;9.80;99.90;;;;;;4899599;29;20048;-86
2021/12/07 09:26:34;;;;;;;42.10;5.95;;;9.90;99.90;;;;;;4899592;29;20094;-85
2021/12/07 09:29:01;;;;;;;43.88;7.05;;;10.00;99.90;;;;;;4899661;29;20063;-85
2021/12/07 09:31:27;;;;;;;45.40;6.70;;;9.90;99.90;;;;;;4896440;29;20037;-85
2021/12/07 09:33:54;;;;;;;38.90;5.68;;;9.90;99.90;;;;;;4898398;29;20618;-85
2021/12/07 09:36:21;;;;;;;39.92;5.90;;;9.90;99.90;;;;;;4900862;29;20055;-86
2021/12/07 09:38:49;;;;;;;47.78;6.20;;;9.90;99.90;;;;;;4899624;29;20029;-85
2021/12/07 09:41:15;;;;;;;40.30;6.95;;;9.90;99.90;;;;;;4900632;29;20063;-85
2021/12/07 09:43:41;;;;;;;44.15;6.57;;;9.90;99.90;;;;;;4900760;29;20517;-85
2021/12/07 09:46:09;;;;;;;39.33;6.13;;;10.00;99.90;;;;;;4901117;29;20394;-86
2021/12/07 09:48:36;;;;;;;43.25;7.43;;;10.00;99.90;;;;;;4899498;29;20040;-85
2021/12/07 09:51:04;;;;;;;42.25;5.93;;;10.00;99.90;;;;;;4900794;29;20039;-86
2021/12/07 09:53:29;;;;;;;32.38;5.43;;;10.00;99.90;;;;;;4900736;29;20035;-87
2021/12/07 09:55:57;;;;;;;44.50;5.95;;;10.00;99.90;;;;;;4899080;29;20024;-87
2021/12/07 09:58:23;;;;;;;35.88;5.45;;;10.10;99.90;;;;;;4900461;29;20032;-87
2021/12/07 10:00:49;;;;;;;39.75;6.22;;;10.10;99.90;;;;;;4900638;29;20025;-88
2021/12/07 10:03:16;;;;;;;37.13;5.80;;;10.20;99.90;;;;;;4900615;29;20103;-88
2021/12/07 10:05:43;;;;;;;35.50;6.18;;;10.20;99.90;;;;;;4900621;29;20485;-88
2021/12/07 10:08:11;;;;;;;37.85;5.57;;;10.20;99.90;;;;;;4900443;29;20123;-87
2021/12/07 10:10:51;;;;;;;32.72;4.75;;;10.20;99.90;;;;;;4899153;29;20025;-88
2021/12/07 10:13:17;;;;;;;30.65;4.78;;;10.20;99.90;;;;;;4900491;29;20120;-86
2021/12/07 10:15:44;;;;;;;35.03;4.70;;;10.20;99.90;;;;;;4899201;29;20111;-87
2021/12/07 10:18:19;;;;;;;29.92;5.50;;;10.20;99.90;;;;;;4900592;29;20450;-87
2021/12/07 10:20:48;;;;;;;37.33;5.13;;;10.20;99.90;;;;;;4898908;29;20025;-87
2021/12/07 10:23:13;;;;;;;28.52;4.50;;;10.10;99.90;;;;;;4899019;29;20059;-86
2021/12/07 10:25:40;;;;;;;36.47;5.60;;;10.10;99.90;;;;;;4900364;29;20095;-87
2021/12/07 10:28:37;;;;;;;23.75;3.92;;;10.10;99.90;;;;;;4898515;29;20037;-86
2021/12/07 10:31:03;;;;;;;27.27;3.78;;;10.20;99.90;;;;;;4895979;29;20405;-86
2021/12/07 10:33:37;;;;;;;27.67;3.80;;;10.10;99.90;;;;;;4897198;29;20084;-86
2021/12/07 10:36:15;;;;;;;33.40;5.55;;;10.10;99.90;;;;;;4897281;29;20474;-86
2021/12/07 10:38:45;;;;;;;24.17;4.60;;;10.10;99.90;;;;;;4897311;29;20033;-86
2021/12/07 10:41:15;;;;;;;28.95;4.40;;;10.10;99.90;;;;;;4895864;29;20501;-86
2021/12/07 10:43:49;;;;;;;22.58;4.55;;;10.10;99.90;;;;;;4897172;29;20031;-87
2021/12/07 10:46:30;;;;;;;26.00;4.00;;;10.00;99.90;;;;;;4895320;29;20451;-85
2021/12/07 10:49:17;;;;;;;32.42;4.72;;;10.00;99.90;;;;;;4904393;29;20097;-86
2021/12/07 10:51:55;;;;;;;26.98;3.65;;;9.90;99.90;;;;;;4896735;29;20040;-87
2021/12/07 10:54:23;;;;;;;38.20;4.95;;;9.90;99.90;;;;;;4895370;29;20033;-88
2021/12/07 10:56:50;;;;;;;29.30;3.90;;;9.80;99.90;;;;;;4897287;29;20032;-89
2021/12/07 10:59:16;;;;;;;31.63;5.40;;;9.70;99.90;;;;;;4896252;29;20028;-88
2021/12/07 11:01:46;;;;;;;30.88;4.75;;;9.70;99.90;;;;;;4897340;29;20081;-86
2021/12/07 11:04:33;;;;;;;30.52;4.93;;;9.60;99.90;;;;;;4897065;29;20013;-89
2021/12/07 11:07:27;;;;;;;39.10;5.32;;;9.60;99.90;;;;;;4891830;29;20261;-89
2021/12/07 11:10:39;;;;;;;37.20;5.00;;;9.50;99.90;;;;;;4893920;29;20033;-88
2021/12/07 11:13:19;;;;;;;26.98;5.00;;;9.50;99.90;;;;;;4893829;29;20505;-89
2021/12/07 11:15:53;;;;;;;31.15;5.20;;;9.40;99.90;;;;;;4897129;29;20079;-88
2021/12/07 11:18:26;;;;;;;40.08;5.55;;;9.40;99.90;;;;;;4895454;29;20021;-87
2021/12/07 11:20:54;;;;;;;29.63;4.07;;;9.40;99.90;;;;;;4897118;29;20104;-88
2021/12/07 11:23:26;;;;;;;28.50;4.50;;;9.30;99.90;;;;;;4892102;29;20403;-89
2021/12/07 11:31:38;;;;;;;40.95;5.55;;;9.30;99.90;;;;;;4907697;29;20076;-88
2021/12/07 11:34:18;;;;;;;37.67;5.97;;;9.30;99.90;;;;;;4906614;29;20028;-89
2021/12/07 11:36:49;;;;;;;37.85;4.63;;;9.30;99.90;;;;;;4902557;29;20028;-88
2021/12/07 11:39:51;;;;;;;27.77;4.90;;;9.20;99.90;;;;;;4904283;29;20044;-89
2021/12/07 11:42:28;;;;;;;33.05;4.85;;;9.30;99.90;;;;;;4897561;29;20041;-90
2021/12/07 11:45:00;;;;;;;35.08;5.00;;;9.30;99.90;;;;;;4886425;29;20462;-90
2021/12/07 11:47:28;;;;;;;30.95;5.88;;;9.30;99.90;;;;;;4897623;29;20037;-90
2021/12/07 11:49:56;;;;;;;29.17;5.25;;;9.30;99.90;;;;;;4895046;29;20028;-90
2021/12/07 11:52:23;;;;;;;31.52;5.63;;;9.30;99.90;;;;;;4896542;29;20036;-88
2021/12/07 11:54:49;;;;;;;29.17;5.30;;;9.30;99.90;;;;;;4894914;29;20029;-89
2021/12/07 11:57:17;;;;;;;28.10;4.50;;;9.30;99.90;;;;;;4897017;29;20021;-89
2021/12/07 11:59:45;;;;;;;37.42;5.93;;;9.30;99.90;;;;;;4894850;29;20119;-89
2021/12/07 12:02:10;;;;;;;21.77;4.85;;;9.30;99.90;;;;;;4895287;29;20033;-89
2021/12/07 12:04:36;;;;;;;33.83;5.05;;;9.30;99.90;;;;;;4897796;29;20394;-90
2021/12/07 12:07:03;;;;;;;29.95;4.88;;;9.30;99.90;;;;;;4894914;29;20044;-90
2021/12/07 12:09:30;;;;;;;28.00;5.07;;;9.30;99.90;;;;;;4894795;29;20675;-90
2021/12/07 12:12:45;;;;;;;20.83;4.38;;;9.30;99.90;;;;;;4897459;29;20334;-89
2021/12/07 12:15:29;;;;;;;25.98;4.38;;;9.40;99.90;;;;;;4876994;29;20130;-89
2021/12/07 12:18:16;;;;;;;29.83;4.68;;;9.40;99.90;;;;;;4856305;29;20244;-88
2021/12/07 12:20:47;;;;;;;34.30;4.90;;;9.40;99.90;;;;;;4896799;29;20079;-89
2021/12/07 12:23:13;;;;;;;31.65;4.68;;;9.40;99.90;;;;;;4901524;29;20049;-89
2021/12/07 12:25:39;;;;;;;32.10;5.50;;;9.40;99.90;;;;;;4904577;29;20033;-90
2021/12/07 12:28:04;;;;;;;30.35;4.93;;;9.30;99.90;;;;;;4902885;29;20029;-90
2021/12/07 12:30:32;;;;;;;32.65;6.13;;;9.30;99.90;;;;;;4904236;29;20225;-90
2021/12/07 12:33:11;;;;;;;34.70;5.43;;;9.30;99.90;;;;;;4906403;29;20017;-88
2021/12/07 12:35:49;;;;;;;25.88;4.30;;;9.40;99.90;;;;;;4899308;29;20025;-89
2021/12/07 12:38:23;;;;;;;29.80;4.90;;;9.30;99.90;;;;;;4904475;29;20047;-90
2021/12/07 12:41:06;;;;;;;25.88;4.25;;;9.40;99.90;;;;;;4895492;29;20036;-90
2021/12/07 12:44:08;;;;;;;32.05;5.55;;;9.40;99.90;;;;;;4894823;29;20056;-91
2021/12/07 12:46:37;;;;;;;25.10;5.22;;;9.40;99.90;;;;;;4894798;29;20473;-88
2021/12/07 12:49:10;;;;;;;23.08;4.15;;;9.40;99.90;;;;;;4895522;29;20024;-89
2021/12/07 12:51:49;;;;;;;30.13;5.18;;;9.40;99.90;;;;;;4894879;29;20025;-85
2021/12/07 12:54:16;;;;;;;21.13;4.82;;;9.40;99.90;;;;;;4895042;29;20068;-88
2021/12/07 12:56:42;;;;;;;22.25;4.55;;;9.40;99.90;;;;;;4895001;29;20029;-89
2021/12/07 12:59:11;;;;;;;27.33;4.65;;;9.50;99.90;;;;;;4895034;29;20033;-88
2021/12/07 13:01:45;;;;;;;34.78;5.78;;;9.50;99.90;;;;;;4894886;29;20032;-86
2021/12/07 13:04:15;;;;;;;33.55;6.05;;;9.50;99.90;;;;;;4895054;29;20024;-89
2021/12/07 13:07:23;;;;;;;36.13;5.75;;;9.50;99.90;;;;;;4894865;29;20035;-89
2021/12/07 13:09:54;;;;;;;26.30;4.72;;;9.50;99.90;;;;;;4896369;29;20070;-88
2021/12/07 13:12:42;;;;;;;41.33;5.10;;;9.60;99.90;;;;;;4896526;29;20032;-89
2021/12/07 13:15:10;;;;;;;35.45;5.75;;;9.70;99.90;;;;;;4896052;29;20032;-90
2021/12/07 13:17:48;;;;;;;37.22;5.70;;;9.90;99.90;;;;;;4894085;29;20029;-91
2021/12/07 13:20:17;;;;;;;31.75;4.78;;;10.10;99.90;;;;;;4895003;29;20543;-91
2021/12/07 13:22:56;;;;;;;27.98;4.50;;;10.10;99.90;;;;;;4893993;29;20063;-90
2021/12/07 13:25:25;;;;;;;32.03;4.60;;;10.20;99.90;;;;;;4895325;29;20029;-89
2021/12/07 13:28:01;;;;;;;23.40;4.68;;;10.10;99.90;;;;;;4894076;29;20036;-89
2021/12/07 13:30:46;;;;;;;36.75;5.35;;;10.10;99.90;;;;;;4897866;29;20025;-91
2021/12/07 13:33:19;;;;;;;34.67;6.68;;;10.10;99.90;;;;;;4900930;29;20039;-93
2021/12/07 13:35:48;;;;;;;32.25;7.03;;;10.10;99.90;;;;;;4907587;29;20096;-92
2021/12/07 13:38:21;;;;;;;41.35;6.03;;;10.20;99.90;;;;;;4897941;29;20058;-91
2021/12/07 13:40:49;;;;;;;38.92;6.03;;;10.30;99.90;;;;;;4900334;29;20082;-90
2021/12/07 13:43:36;;;;;;;45.35;6.75;;;10.60;99.90;;;;;;4896326;29;20032;-90
2021/12/07 13:46:14;;;;;;;52.78;9.23;;;10.70;99.90;;;;;;4899290;29;20057;-90
2021/12/07 13:48:46;;;;;;;52.63;9.20;;;10.80;99.90;;;;;;4899664;29;20084;-93
2021/12/07 13:51:14;;;;;;;52.15;8.35;;;10.90;99.90;;;;;;4898474;29;20025;-90
2021/12/07 13:53:42;;;;;;;46.08;7.65;;;10.90;99.90;;;;;;4899771;29;20037;-90
2021/12/07 13:56:09;;;;;;;58.42;8.15;;;11.00;99.90;;;;;;4894728;29;20116;-89
2021/12/07 13:59:19;;;;;;;72.57;9.23;;;11.00;99.90;;;;;;4897219;29;20028;-93
2021/12/07 14:01:56;;;;;;;73.68;9.88;;;11.10;99.90;;;;;;4876902;29;20065;-90
2021/12/07 14:04:28;;;;;;;56.95;7.78;;;11.20;99.90;;;;;;4894657;29;20089;-91
2021/12/07 14:06:57;;;;;;;84.50;10.32;;;11.20;99.90;;;;;;4897020;29;20394;-93
2021/12/07 14:09:23;;;;;;;79.90;9.52;;;11.30;99.90;;;;;;4913253;29;20092;-91
2021/12/07 14:12:00;;;;;;;84.25;9.25;;;11.30;99.90;;;;;;4896962;29;20063;-92
2021/12/07 14:14:29;;;;;;;72.55;9.75;;;11.40;99.90;;;;;;4891938;29;20497;-92
2021/12/07 14:16:57;;;;;;;124.70;14.32;;;11.40;99.90;;;;;;4897565;29;20131;-92
2021/12/07 14:19:25;;;;;;;76.80;7.57;;;11.50;99.90;;;;;;4902855;29;20115;-92
2021/12/07 14:21:52;;;;;;;63.58;7.18;;;11.70;99.90;;;;;;4900003;29;20041;-87
2021/12/07 14:24:20;;;;;;;85.78;9.15;;;12.00;99.90;;;;;;4899544;29;20044;-87
2021/12/07 14:26:47;;;;;;;72.90;9.00;;;12.10;99.90;;;;;;4905932;29;20320;-87
2021/12/07 14:29:16;;;;;;;89.03;10.25;;;12.20;99.90;;;;;;4899376;29;20024;-87
2021/12/07 14:31:49;;;;;;;78.43;9.43;;;12.30;99.90;;;;;;4900231;29;20474;-87
2021/12/07 14:34:23;;;;;;;78.78;10.55;;;12.30;99.90;;;;;;4902610;29;20025;-87
2021/12/07 14:36:54;;;;;;;;;;;12.40;99.90;;;;;;4897731;29;20115;-86
2021/12/07 14:39:26;;;;;;;61.47;7.13;;;12.40;99.90;;;;;;4899342;29;19911;-86
2021/12/07 14:41:57;;;;;;;53.75;7.85;;;12.40;99.90;;;;;;4897326;29;20497;-86
2021/12/07 14:44:28;;;;;;;49.95;5.82;;;12.40;99.90;;;;;;4897704;29;20027;-85
2021/12/07 14:46:55;;;;;;;44.55;6.20;;;12.50;99.90;;;;;;4895653;29;20036;-85
2021/12/07 14:49:21;;;;;;;49.20;6.78;;;12.50;99.90;;;;;;4895773;29;20127;-85
2021/12/07 14:51:48;;;;;;;51.83;8.23;;;12.50;99.90;;;;;;4900355;29;20021;-85